Time;durP1;ratioP1;P1;durP2;ratioP2;P2;SDS_P1;SDS_P2;PMS_P1;PMS_P2;Temp;Humidity;BMP_temperature;BMP_pressure;BME280_temperature;BME280_humidity;BME280_pressure;Samples;Min_cycle;Max_cycle;Signal;HPM_P1;HPM_P2
2023/12/29 00:00:51;;;;;;;1999.90;999.90;;;9.90;99.90;;;;;;5061896;28;20098;-85
2023/12/29 00:03:17;;;;;;;1999.90;999.90;;;10.00;99.90;;;;;;5063435;28;20040;-84
2023/12/29 00:05:42;;;;;;;1999.90;999.90;;;9.70;99.90;;;;;;5062833;28;20161;-84
2023/12/29 00:08:08;;;;;;;1999.90;999.90;;;9.70;99.90;;;;;;5062432;28;20036;-85
2023/12/29 00:10:34;;;;;;;1999.90;999.90;;;10.30;99.90;;;;;;5062345;28;20039;-85
2023/12/29 00:12:59;;;;;;;1999.90;999.90;;;9.70;99.90;;;;;;5063640;28;20040;-85
2023/12/29 00:15:25;;;;;;;1999.90;999.90;;;10.50;99.90;;;;;;5063537;28;20100;-84
2023/12/29 00:17:52;;;;;;;1999.90;999.90;;;9.80;99.90;;;;;;5062124;28;20168;-84
2023/12/29 00:20:18;;;;;;;1999.90;999.90;;;9.60;99.90;;;;;;5064636;28;20072;-85
2023/12/29 00:22:43;;;;;;;1999.90;999.90;;;9.80;99.90;;;;;;5078758;28;20055;-85
2023/12/29 00:25:09;;;;;;;1999.90;999.90;;;10.30;99.90;;;;;;5062417;28;20048;-84
2023/12/29 00:27:36;;;;;;;1999.90;999.90;;;9.80;99.90;;;;;;5061826;28;20121;-85
2023/12/29 00:30:02;;;;;;;1999.90;999.90;;;10.30;99.90;;;;;;5061135;28;20083;-84
2023/12/29 00:32:28;;;;;;;1999.90;999.90;;;9.70;99.90;;;;;;5057028;28;20463;-85
2023/12/29 00:34:53;;;;;;;1999.90;999.90;;;9.70;99.90;;;;;;5061306;28;20112;-85
2023/12/29 00:37:19;;;;;;;1999.90;999.90;;;9.70;99.90;;;;;;5062350;28;20033;-84
2023/12/29 00:39:44;;;;;;;1999.90;999.90;;;9.70;99.90;;;;;;5061897;28;20069;-85
2023/12/29 00:42:10;;;;;;;1999.90;999.90;;;9.70;99.90;;;;;;5061841;28;20096;-85
2023/12/29 00:44:36;;;;;;;1999.90;999.90;;;9.70;99.90;;;;;;5060794;28;20409;-85
2023/12/29 00:47:02;;;;;;;1999.90;999.90;;;9.70;99.90;;;;;;5061158;28;20040;-85
2023/12/29 00:49:27;;;;;;;1999.90;999.90;;;9.70;99.90;;;;;;5075992;28;20036;-85
2023/12/29 00:51:53;;;;;;;1999.90;999.90;;;9.70;99.90;;;;;;5061062;28;20046;-85
2023/12/29 00:54:18;;;;;;;1999.90;999.90;;;9.70;99.90;;;;;;5061265;28;20102;-85
2023/12/29 00:56:51;;;;;;;1999.90;999.90;;;9.80;99.90;;;;;;5062428;28;20037;-85
2023/12/29 00:59:18;;;;;;;1999.90;999.90;;;9.70;99.90;;;;;;5061578;28;20072;-84
2023/12/29 01:01:44;;;;;;;1999.90;999.90;;;9.70;99.90;;;;;;5061118;28;20283;-84
2023/12/29 01:04:10;;;;;;;1999.90;999.90;;;9.60;99.90;;;;;;5061290;28;20074;-84
2023/12/29 01:06:35;;;;;;;1999.90;999.90;;;9.60;99.90;;;;;;5081125;28;20079;-84
2023/12/29 01:09:01;;;;;;;1999.90;999.90;;;10.00;99.90;;;;;;5045281;28;20539;-84
2023/12/29 01:11:26;;;;;;;1999.90;999.90;;;9.50;99.90;;;;;;5062238;28;20418;-84
2023/12/29 01:13:52;;;;;;;1999.90;999.90;;;9.70;99.90;;;;;;5061421;28;20041;-84
2023/12/29 01:16:18;;;;;;;1999.90;999.90;;;9.80;99.90;;;;;;5061513;28;20094;-84
2023/12/29 01:18:43;;;;;;;1999.90;999.90;;;9.50;99.90;;;;;;5061934;28;20028;-83
2023/12/29 01:21:09;;;;;;;1999.90;999.90;;;9.40;99.90;;;;;;5060862;28;20115;-84
2023/12/29 01:23:34;;;;;;;1999.90;999.90;;;9.30;99.90;;;;;;5077847;28;20123;-84
2023/12/29 01:26:00;;;;;;;1999.90;999.90;;;9.30;99.90;;;;;;5061332;28;20040;-84
2023/12/29 01:28:25;;;;;;;1999.90;999.90;;;9.50;99.90;;;;;;5060773;28;20500;-84
2023/12/29 01:30:51;;;;;;;1999.90;999.90;;;10.10;99.90;;;;;;5060709;28;20041;-84
2023/12/29 01:33:17;;;;;;;1999.90;999.90;;;9.30;99.90;;;;;;5058893;28;20039;-84
2023/12/29 01:35:42;;;;;;;1999.90;999.90;;;9.30;99.90;;;;;;5062039;28;20548;-84
2023/12/29 01:38:08;;;;;;;1999.90;999.90;;;10.10;99.90;;;;;;5061764;28;20054;-84
2023/12/29 01:40:45;;;;;;;1999.90;999.90;;;9.30;99.90;;;;;;5061068;28;20032;-85
2023/12/29 01:43:11;;;;;;;1999.90;999.90;;;9.30;99.90;;;;;;5061083;28;20165;-84
2023/12/29 01:45:37;;;;;;;1999.90;999.90;;;9.30;99.90;;;;;;5080118;28;20040;-84
2023/12/29 01:48:03;;;;;;;1999.90;999.90;;;9.90;99.90;;;;;;5078446;28;20039;-84
2023/12/29 01:50:29;;;;;;;1999.90;999.90;;;9.10;99.90;;;;;;5062557;28;20040;-83
2023/12/29 01:52:56;;;;;;;1999.90;999.90;;;9.00;99.90;;;;;;5062886;28;20036;-83
2023/12/29 01:55:24;;;;;;;1999.90;999.90;;;8.90;99.90;;;;;;5061563;28;20036;-83
2023/12/29 01:57:50;;;;;;;1999.90;999.90;;;8.90;99.90;;;;;;5080748;28;20041;-83
2023/12/29 02:00:17;;;;;;;1999.90;999.90;;;9.40;99.90;;;;;;5063132;28;20397;-83
2023/12/29 02:02:46;;;;;;;1999.90;999.90;;;8.80;99.90;;;;;;5063455;28;20233;-82
2023/12/29 02:05:14;;;;;;;1999.90;999.90;;;8.80;99.90;;;;;;5064536;28;20650;-81
2023/12/29 02:07:41;;;;;;;1999.90;999.90;;;8.80;99.90;;;;;;5083503;28;20040;-81
2023/12/29 02:10:07;;;;;;;1999.90;999.90;;;8.70;99.90;;;;;;5080368;28;20033;-82
2023/12/29 02:12:35;;;;;;;1999.90;999.90;;;8.30;99.90;;;;;;5082142;28;20123;-82
2023/12/29 02:15:01;;;;;;;1999.90;999.90;;;8.00;99.90;;;;;;5061749;28;20067;-82
2023/12/29 02:17:31;;;;;;;1999.90;999.90;;;7.40;99.90;;;;;;5061036;28;20659;-81
2023/12/29 02:19:57;;;;;;;1999.90;999.90;;;8.10;99.90;;;;;;5076540;28;20044;-82
2023/12/29 02:22:22;;;;;;;1999.90;999.90;;;6.80;99.90;;;;;;5076399;28;20047;-82
2023/12/29 02:24:51;;;;;;;1999.90;999.90;;;6.70;99.90;;;;;;5059683;28;20044;-82
2023/12/29 02:27:54;;;;;;;1999.90;999.90;;;7.30;99.90;;;;;;5092408;28;20051;-82
2023/12/29 02:30:25;;;;;;;1999.90;999.90;;;6.50;99.90;;;;;;5075474;28;20086;-82
2023/12/29 02:33:01;;;;;;;1999.90;999.90;;;6.50;99.90;;;;;;5076260;28;20036;-82
2023/12/29 02:35:34;;;;;;;1999.90;999.90;;;6.50;99.90;;;;;;5059510;28;20102;-82
2023/12/29 02:38:00;;;;;;;1999.90;999.90;;;6.60;99.90;;;;;;5075747;28;20049;-81
2023/12/29 02:40:26;;;;;;;1999.90;999.90;;;6.70;99.90;;;;;;5058866;28;20040;-82
2023/12/29 02:42:52;;;;;;;1999.90;999.90;;;6.80;99.90;;;;;;5076793;28;20051;-81
2023/12/29 02:45:18;;;;;;;1999.90;999.90;;;7.50;99.90;;;;;;5075972;28;20093;-82
2023/12/29 02:47:44;;;;;;;1999.90;999.90;;;6.90;99.90;;;;;;5076328;28;20079;-82
2023/12/29 02:50:10;;;;;;;1999.90;999.90;;;7.00;99.90;;;;;;5076863;28;20047;-81
2023/12/29 02:52:36;;;;;;;1999.90;999.90;;;7.90;99.90;;;;;;5059368;28;20039;-81
2023/12/29 02:55:03;;;;;;;1999.90;999.90;;;7.10;99.90;;;;;;5059858;28;20473;-81
2023/12/29 02:57:29;;;;;;;1999.90;999.90;;;7.30;99.90;;;;;;5058942;28;20029;-82
2023/12/29 02:59:55;;;;;;;1999.90;999.90;;;7.60;99.90;;;;;;5059683;28;20047;-82
2023/12/29 03:02:22;;;;;;;1999.90;999.90;;;6.90;99.90;;;;;;5076911;28;20044;-82
2023/12/29 03:04:47;;;;;;;1999.90;999.90;;;7.60;99.90;;;;;;5055969;28;20066;-81
2023/12/29 03:07:13;;;;;;;1999.90;999.90;;;7.70;99.90;;;;;;5059130;28;20058;-82
2023/12/29 03:09:39;;;;;;;1999.90;999.90;;;8.00;99.90;;;;;;5060821;28;20037;-82
2023/12/29 03:12:05;;;;;;;1999.90;999.90;;;8.00;99.90;;;;;;5059503;28;20059;-82
2023/12/29 03:14:31;;;;;;;1999.90;999.90;;;8.10;99.90;;;;;;5059766;28;20123;-82
2023/12/29 03:16:57;;;;;;;1999.90;999.90;;;8.20;99.90;;;;;;5060053;28;20068;-82
2023/12/29 03:19:23;;;;;;;1999.90;999.90;;;8.80;99.90;;;;;;5059967;28;20043;-81
2023/12/29 03:21:48;;;;;;;1999.90;999.90;;;8.40;99.90;;;;;;5057918;28;20051;-83
2023/12/29 03:24:14;;;;;;;1999.90;999.90;;;8.40;99.90;;;;;;5059764;28;20032;-82
2023/12/29 03:26:40;;;;;;;1999.90;999.90;;;8.70;99.90;;;;;;5060375;28;20067;-82
2023/12/29 03:29:06;;;;;;;1999.90;999.90;;;8.50;99.90;;;;;;5062217;28;20132;-82
2023/12/29 03:31:32;;;;;;;1999.90;999.90;;;8.50;99.90;;;;;;5062743;28;20064;-82
2023/12/29 03:33:58;;;;;;;1999.90;999.90;;;8.50;99.90;;;;;;5063545;28;20041;-82
2023/12/29 03:36:23;;;;;;;1999.90;999.90;;;8.50;99.90;;;;;;5078950;28;20182;-81
2023/12/29 03:38:49;;;;;;;1999.90;999.90;;;8.50;99.90;;;;;;5062454;28;20044;-82
2023/12/29 03:41:14;;;;;;;1999.90;999.90;;;8.60;99.90;;;;;;5062613;28;20408;-82
2023/12/29 03:43:40;;;;;;;1999.90;999.90;;;9.40;99.90;;;;;;5062660;28;20559;-82
2023/12/29 03:46:17;;;;;;;1999.90;999.90;;;8.70;99.90;;;;;;5061845;28;20078;-82
2023/12/29 03:48:42;;;;;;;1999.90;999.90;;;8.90;99.90;;;;;;5063319;28;20537;-82
2023/12/29 03:51:08;;;;;;;1999.90;999.90;;;8.70;99.90;;;;;;5062961;28;20036;-82
2023/12/29 03:53:34;;;;;;;1999.90;999.90;;;8.70;99.90;;;;;;5061817;28;20111;-83
2023/12/29 03:56:03;;;;;;;1999.90;999.90;;;8.70;99.90;;;;;;5062716;28;20066;-82
2023/12/29 03:58:29;;;;;;;1999.90;999.90;;;9.10;99.90;;;;;;5061672;28;20507;-82
2023/12/29 04:00:55;;;;;;;1999.90;999.90;;;9.50;99.90;;;;;;5062705;28;20044;-82
2023/12/29 04:03:20;;;;;;;1999.90;999.90;;;8.60;99.90;;;;;;5078824;28;20517;-82
2023/12/29 04:05:46;;;;;;;1999.90;999.90;;;8.60;99.90;;;;;;5062705;28;20043;-82
2023/12/29 04:08:13;;;;;;;1999.90;999.90;;;8.50;99.90;;;;;;5062213;28;20521;-82
2023/12/29 04:10:38;;;;;;;1999.90;999.90;;;8.50;99.90;;;;;;5062457;28;20048;-82
2023/12/29 04:13:04;;;;;;;1999.90;999.90;;;8.40;99.90;;;;;;5062203;28;20064;-82
2023/12/29 04:15:30;;;;;;;1999.90;999.90;;;8.40;99.90;;;;;;5062458;28;20123;-82
2023/12/29 04:17:56;;;;;;;1999.90;999.90;;;8.40;99.90;;;;;;5062310;28;20087;-81
2023/12/29 04:20:21;;;;;;;1999.90;999.90;;;8.40;99.90;;;;;;5078182;28;20401;-81
2023/12/29 04:22:47;;;;;;;1999.90;999.90;;;9.00;99.90;;;;;;5062889;28;20138;-82
2023/12/29 04:25:13;;;;;;;1999.90;999.90;;;8.40;99.90;;;;;;5059528;28;20059;-82
2023/12/29 04:27:40;;;;;;;1999.90;999.90;;;8.50;99.90;;;;;;5076854;28;20060;-81
2023/12/29 04:30:07;;;;;;;1999.90;999.90;;;8.40;99.90;;;;;;5062498;28;20088;-82
2023/12/29 04:32:33;;;;;;;1999.90;999.90;;;8.40;99.90;;;;;;5061626;28;20044;-82
2023/12/29 04:35:00;;;;;;;1999.90;999.90;;;8.40;99.90;;;;;;5061636;28;20106;-81
2023/12/29 04:37:25;;;;;;;1999.90;999.90;;;8.40;99.90;;;;;;5061491;28;20416;-82
2023/12/29 04:39:51;;;;;;;1999.90;999.90;;;9.00;99.90;;;;;;5061880;28;20078;-82
2023/12/29 04:42:17;;;;;;;1999.90;999.90;;;8.40;99.90;;;;;;5078623;28;20099;-82
2023/12/29 04:44:43;;;;;;;1999.90;999.90;;;8.30;99.90;;;;;;5062879;28;20047;-82
2023/12/29 04:47:09;;;;;;;1999.90;999.90;;;8.90;99.90;;;;;;5094875;28;20036;-82
2023/12/29 04:49:35;;;;;;;1999.90;999.90;;;8.40;99.90;;;;;;5062635;28;20048;-82
2023/12/29 04:52:01;;;;;;;1999.90;999.90;;;8.30;99.90;;;;;;5062485;28;20469;-82
2023/12/29 04:54:27;;;;;;;1999.90;999.90;;;8.30;99.90;;;;;;5062397;28;20109;-82
2023/12/29 04:56:52;;;;;;;1999.90;999.90;;;8.40;99.90;;;;;;5063407;28;20501;-82
2023/12/29 04:59:18;;;;;;;1999.90;999.90;;;8.30;99.90;;;;;;5079675;28;20146;-81
2023/12/29 05:01:44;;;;;;;1999.90;999.90;;;8.30;99.90;;;;;;5061893;28;20093;-82
2023/12/29 05:04:09;;;;;;;1999.90;999.90;;;8.30;99.90;;;;;;5061313;28;20040;-81
2023/12/29 05:06:35;;;;;;;1999.90;999.90;;;8.30;99.90;;;;;;5061839;28;20047;-82
2023/12/29 05:09:03;;;;;;;1999.90;999.90;;;8.30;99.90;;;;;;5061710;28;20131;-82
2023/12/29 05:11:30;;;;;;;1999.90;999.90;;;8.50;99.90;;;;;;5073055;28;20318;-82
2023/12/29 05:13:55;;;;;;;1999.90;999.90;;;8.50;99.90;;;;;;5061551;28;20480;-83
2023/12/29 05:16:21;;;;;;;1999.90;999.90;;;8.30;99.90;;;;;;5078620;28;20037;-82
2023/12/29 05:18:47;;;;;;;1999.90;999.90;;;8.30;99.90;;;;;;5060666;28;20037;-82
2023/12/29 05:21:16;;;;;;;1999.90;999.90;;;8.50;99.90;;;;;;5077656;28;20112;-82
2023/12/29 05:23:44;;;;;;;1999.90;999.90;;;8.30;99.90;;;;;;5062908;28;20127;-82
2023/12/29 05:26:09;;;;;;;1999.90;999.90;;;8.50;99.90;;;;;;5066597;28;20036;-82
2023/12/29 05:28:35;;;;;;;1999.90;999.90;;;8.40;99.90;;;;;;5066179;28;20673;-82
2023/12/29 05:31:03;;;;;;;1999.90;999.90;;;8.30;99.90;;;;;;5067147;28;20038;-82
2023/12/29 05:33:30;;;;;;;1999.90;999.90;;;8.30;99.90;;;;;;5083015;28;20033;-81
2023/12/29 05:35:55;;;;;;;1999.90;999.90;;;8.40;99.90;;;;;;5066389;28;20036;-82
2023/12/29 05:38:21;;;;;;;1999.90;999.90;;;8.30;99.90;;;;;;5066204;28;20035;-82
2023/12/29 05:40:47;;;;;;;1999.90;999.90;;;8.30;99.90;;;;;;5066276;28;20032;-83
2023/12/29 05:43:12;;;;;;;1999.90;999.90;;;8.30;99.90;;;;;;5067120;28;20071;-82
2023/12/29 05:45:38;;;;;;;1999.90;999.90;;;8.30;99.90;;;;;;5083525;28;20053;-81
2023/12/29 05:48:04;;;;;;;1999.90;999.90;;;8.30;99.90;;;;;;5066196;28;20070;-81
2023/12/29 05:50:30;;;;;;;1999.90;999.90;;;8.30;99.90;;;;;;5066031;28;20056;-81
2023/12/29 05:52:55;;;;;;;1999.90;999.90;;;8.30;99.90;;;;;;5066361;28;20129;-82
2023/12/29 05:55:21;;;;;;;1999.90;999.90;;;8.20;99.90;;;;;;5082500;28;20075;-82
2023/12/29 05:57:47;;;;;;;1999.90;999.90;;;8.30;99.90;;;;;;5066198;28;20056;-82
2023/12/29 06:00:14;;;;;;;1999.90;999.90;;;7.50;99.90;;;;;;5065795;28;20112;-82
2023/12/29 06:02:43;;;;;;;1999.90;999.90;;;8.20;99.90;;;;;;5066922;28;20050;-81
2023/12/29 06:05:12;;;;;;;1999.90;999.90;;;8.20;99.90;;;;;;5066212;28;20036;-81
2023/12/29 06:07:38;;;;;;;1999.90;999.90;;;8.30;99.90;;;;;;5082255;28;20048;-81
2023/12/29 06:10:05;;;;;;;1999.90;999.90;;;8.30;99.90;;;;;;5082306;28;20059;-82
2023/12/29 06:12:31;;;;;;;1999.90;999.90;;;8.30;99.90;;;;;;5082465;28;20036;-81
2023/12/29 06:14:56;;;;;;;1999.90;999.90;;;8.30;99.90;;;;;;5082356;28;20029;-82
2023/12/29 06:17:22;;;;;;;1999.90;999.90;;;8.30;99.90;;;;;;5066464;28;20124;-81
2023/12/29 06:19:48;;;;;;;1999.90;999.90;;;8.30;99.90;;;;;;5082884;28;20125;-82
2023/12/29 06:22:14;;;;;;;1999.90;999.90;;;8.30;99.90;;;;;;5066600;28;20493;-81
2023/12/29 06:24:40;;;;;;;1999.90;999.90;;;8.30;99.90;;;;;;5066240;28;20044;-81
2023/12/29 06:27:08;;;;;;;1999.90;999.90;;;8.30;99.90;;;;;;5082487;28;20064;-82
2023/12/29 06:29:33;;;;;;;1999.90;999.90;;;8.30;99.90;;;;;;5082891;28;20037;-81
2023/12/29 06:31:59;;;;;;;1999.90;999.90;;;8.30;99.90;;;;;;5082708;28;20066;-81
2023/12/29 06:34:25;;;;;;;1999.90;999.90;;;8.30;99.90;;;;;;5082668;28;20036;-82
2023/12/29 06:36:51;;;;;;;1999.90;999.90;;;8.30;99.90;;;;;;5066407;28;20051;-83
2023/12/29 06:39:16;;;;;;;1999.90;999.90;;;8.20;99.90;;;;;;5065601;28;20056;-82
2023/12/29 06:41:42;;;;;;;1999.90;999.90;;;8.30;99.90;;;;;;5064612;28;20100;-82
2023/12/29 06:44:08;;;;;;;1999.90;999.90;;;8.30;99.90;;;;;;5065437;28;20051;-82
2023/12/29 06:46:33;;;;;;;1999.90;999.90;;;8.30;99.90;;;;;;5065824;28;20060;-81
2023/12/29 06:48:59;;;;;;;1999.90;999.90;;;8.30;99.90;;;;;;5065564;28;20044;-81
2023/12/29 06:51:25;;;;;;;1999.90;999.90;;;8.30;99.90;;;;;;5065078;28;20043;-81
2023/12/29 06:53:50;;;;;;;1999.90;999.90;;;8.30;99.90;;;;;;5082167;28;20072;-81
2023/12/29 06:56:17;;;;;;;1999.90;999.90;;;8.30;99.90;;;;;;5065391;28;20044;-81
2023/12/29 06:58:44;;;;;;;1999.90;999.90;;;8.30;99.90;;;;;;5063436;28;20062;-82
2023/12/29 07:01:10;;;;;;;1999.90;999.90;;;8.30;99.90;;;;;;5068071;28;20037;-81
2023/12/29 07:03:36;;;;;;;1999.90;999.90;;;8.30;99.90;;;;;;5067896;28;20064;-81
2023/12/29 07:06:02;;;;;;;1999.90;999.90;;;8.30;99.90;;;;;;5067468;28;20039;-81
2023/12/29 07:08:28;;;;;;;1999.90;999.90;;;8.30;99.90;;;;;;5086011;28;20037;-81
2023/12/29 07:10:54;;;;;;;1999.90;999.90;;;8.40;99.90;;;;;;5066147;28;20040;-81
2023/12/29 07:13:19;;;;;;;1999.90;999.90;;;8.30;99.90;;;;;;5086148;28;20075;-81
2023/12/29 07:15:48;;;;;;;1999.90;999.90;;;8.30;99.90;;;;;;5069531;28;20044;-83
2023/12/29 07:18:15;;;;;;;1999.90;999.90;;;8.30;99.90;;;;;;5069288;28;20039;-81
2023/12/29 07:20:41;;;;;;;1999.90;999.90;;;8.30;99.90;;;;;;5069162;28;20040;-81
2023/12/29 07:23:07;;;;;;;1999.90;999.90;;;8.30;99.90;;;;;;5069075;28;20556;-81
2023/12/29 07:25:33;;;;;;;1999.90;999.90;;;8.30;99.90;;;;;;5085837;28;20039;-81
2023/12/29 07:27:58;;;;;;;1999.90;999.90;;;8.30;99.90;;;;;;5069048;28;20052;-83
2023/12/29 07:30:24;;;;;;;1999.90;999.90;;;8.30;99.90;;;;;;5070825;28;20064;-82
2023/12/29 07:32:51;;;;;;;1999.90;999.90;;;8.30;99.90;;;;;;5070574;28;20044;-83
2023/12/29 07:35:17;;;;;;;1999.90;999.90;;;8.40;99.90;;;;;;5087404;28;20083;-83
2023/12/29 07:37:43;;;;;;;1999.90;999.90;;;8.30;99.90;;;;;;5071197;28;20047;-86
2023/12/29 07:40:13;;;;;;;1999.90;999.90;;;8.30;99.90;;;;;;5070985;28;20062;-82
2023/12/29 07:42:40;;;;;;;1999.90;999.90;;;8.30;99.90;;;;;;5069268;28;20032;-82
2023/12/29 07:45:07;;;;;;;1999.90;999.90;;;8.30;99.90;;;;;;5068990;28;20104;-82
2023/12/29 07:47:36;;;;;;;1999.90;999.90;;;8.20;99.90;;;;;;5063564;28;20037;-83
2023/12/29 07:50:01;;;;;;;1999.90;999.90;;;8.10;99.90;;;;;;5070270;28;20059;-83
2023/12/29 07:52:27;;;;;;;1999.90;999.90;;;8.20;99.90;;;;;;5070015;28;20028;-83
2023/12/29 07:54:53;;;;;;;1999.90;999.90;;;8.20;99.90;;;;;;5070528;28;20037;-82
2023/12/29 07:57:19;;;;;;;1999.90;999.90;;;8.60;99.90;;;;;;5069901;28;20029;-83
2023/12/29 07:59:44;;;;;;;1999.90;999.90;;;8.20;99.90;;;;;;5071335;28;20047;-83
2023/12/29 08:02:10;;;;;;;1999.90;999.90;;;8.30;99.90;;;;;;5088102;28;20044;-83
2023/12/29 08:04:35;;;;;;;1999.90;999.90;;;8.40;99.90;;;;;;5069918;28;20043;-83
2023/12/29 08:07:01;;;;;;;1999.90;999.90;;;8.40;99.90;;;;;;5070306;28;20075;-82
2023/12/29 08:09:27;;;;;;;1999.90;999.90;;;9.20;99.90;;;;;;5069203;28;20052;-83
2023/12/29 08:11:53;;;;;;;1999.90;999.90;;;8.50;99.90;;;;;;5067468;28;20045;-83
2023/12/29 08:14:18;;;;;;;1999.90;999.90;;;8.70;99.90;;;;;;5068665;28;20276;-83
2023/12/29 08:16:44;;;;;;;1999.90;999.90;;;8.50;99.90;;;;;;5084146;28;20112;-83
2023/12/29 08:19:10;;;;;;;1999.90;999.90;;;8.60;99.90;;;;;;5067871;28;20041;-82
2023/12/29 08:21:39;;;;;;;1999.90;999.90;;;8.50;99.90;;;;;;5085029;28;20119;-82
2023/12/29 08:24:05;;;;;;;1999.90;999.90;;;8.50;99.90;;;;;;5068706;28;20378;-83
2023/12/29 08:26:30;;;;;;;1999.90;999.90;;;8.50;99.90;;;;;;5068006;28;20082;-82
2023/12/29 08:28:56;;;;;;;1999.90;999.90;;;8.80;99.90;;;;;;5083905;28;20416;-82
2023/12/29 08:31:23;;;;;;;1999.90;999.90;;;8.60;99.90;;;;;;5067294;28;20037;-82
2023/12/29 08:33:48;;;;;;;1999.90;999.90;;;8.60;99.90;;;;;;5067681;28;20040;-82
2023/12/29 08:36:18;;;;;;;1999.90;999.90;;;9.00;99.90;;;;;;5067444;28;20044;-82
2023/12/29 08:38:44;;;;;;;1999.90;999.90;;;8.80;99.90;;;;;;5067636;28;20275;-82
2023/12/29 08:41:13;;;;;;;1999.90;999.90;;;9.00;99.90;;;;;;5063833;28;20056;-82
2023/12/29 08:43:38;;;;;;;1999.90;999.90;;;9.40;99.90;;;;;;5067181;28;20178;-82
2023/12/29 08:46:04;;;;;;;1999.90;999.90;;;8.60;99.90;;;;;;5067364;28;20086;-82
2023/12/29 08:48:30;;;;;;;1999.90;999.90;;;9.50;99.90;;;;;;5067675;28;20040;-82
2023/12/29 08:50:55;;;;;;;1999.90;999.90;;;8.50;99.90;;;;;;5066488;28;20093;-82
2023/12/29 08:53:21;;;;;;;1999.90;999.90;;;8.60;99.90;;;;;;5067038;28;20049;-82
2023/12/29 08:55:47;;;;;;;1999.90;999.90;;;8.70;99.90;;;;;;5067486;28;20057;-83
2023/12/29 08:58:12;;;;;;;1999.90;999.90;;;8.80;99.90;;;;;;5067773;28;20040;-83
2023/12/29 09:00:38;;;;;;;1999.90;999.90;;;9.50;99.90;;;;;;5067791;28;20044;-83
2023/12/29 09:03:04;;;;;;;1999.90;999.90;;;8.50;99.90;;;;;;5067217;28;20033;-83
2023/12/29 09:05:30;;;;;;;1999.90;999.90;;;8.50;99.90;;;;;;5067880;28;20070;-84
2023/12/29 09:07:55;;;;;;;1999.90;999.90;;;8.50;99.90;;;;;;5067589;28;20036;-84
2023/12/29 09:10:22;;;;;;;1999.90;999.90;;;8.50;99.90;;;;;;5067694;28;20089;-83
2023/12/29 09:12:48;;;;;;;1999.90;999.90;;;8.80;99.90;;;;;;5068362;28;20241;-84
2023/12/29 09:15:14;;;;;;;1999.90;999.90;;;8.60;99.90;;;;;;5069189;28;20024;-83
2023/12/29 09:17:40;;;;;;;1999.90;999.90;;;8.60;99.90;;;;;;5067743;28;20055;-83
2023/12/29 09:20:07;;;;;;;1999.90;999.90;;;9.20;99.90;;;;;;5084406;28;20538;-83
2023/12/29 09:22:34;;;;;;;1999.90;999.90;;;8.70;99.90;;;;;;5067507;28;20054;-83
2023/12/29 09:24:59;;;;;;;1999.90;999.90;;;8.60;99.90;;;;;;5065099;28;20052;-85
2023/12/29 09:27:25;;;;;;;1999.90;999.90;;;8.70;99.90;;;;;;5065787;28;20049;-79
2023/12/29 09:29:51;;;;;;;1999.90;999.90;;;8.70;99.90;;;;;;5065538;28;20036;-82
2023/12/29 09:32:16;;;;;;;1999.90;999.90;;;9.50;99.90;;;;;;5068608;28;20099;-82
2023/12/29 09:34:42;;;;;;;1999.90;999.90;;;9.40;99.90;;;;;;5069225;28;20036;-83
2023/12/29 09:37:08;;;;;;;1999.90;999.90;;;8.80;99.90;;;;;;5072480;28;20041;-83
2023/12/29 09:39:34;;;;;;;1999.90;999.90;;;8.80;99.90;;;;;;5068325;28;20028;-84
2023/12/29 09:42:00;;;;;;;1999.90;999.90;;;8.80;99.90;;;;;;5067343;28;20025;-83
2023/12/29 09:44:28;;;;;;;1999.90;999.90;;;8.80;99.90;;;;;;5084383;28;20527;-83
2023/12/29 09:46:57;;;;;;;1999.90;999.90;;;8.80;99.90;;;;;;5084183;28;20037;-83
2023/12/29 09:49:24;;;;;;;1999.90;999.90;;;9.30;99.90;;;;;;5067509;28;20063;-83
2023/12/29 09:51:50;;;;;;;1999.90;999.90;;;9.00;99.90;;;;;;5066937;28;20067;-83
2023/12/29 09:54:16;;;;;;;1999.90;999.90;;;8.80;99.90;;;;;;5067765;28;20071;-83
2023/12/29 09:56:42;;;;;;;1999.90;999.90;;;8.80;99.90;;;;;;5067309;28;20848;-83
2023/12/29 09:59:12;;;;;;;1999.90;999.90;;;8.90;99.90;;;;;;5067635;28;20040;-82
2023/12/29 10:01:41;;;;;;;1999.90;999.90;;;9.10;99.90;;;;;;5066630;28;20060;-83
2023/12/29 10:04:07;;;;;;;1999.90;999.90;;;8.90;99.90;;;;;;5060931;28;20041;-82
2023/12/29 10:06:37;;;;;;;1999.90;999.90;;;9.30;99.90;;;;;;5063447;28;20096;-84
2023/12/29 10:09:05;;;;;;;1999.90;999.90;;;10.00;99.90;;;;;;5077433;28;20268;-85
2023/12/29 10:11:35;;;;;;;1999.90;999.90;;;8.90;99.90;;;;;;5067039;28;20036;-85
2023/12/29 10:14:15;;;;;;;1999.90;999.90;;;9.20;99.90;;;;;;5082419;28;20104;-85
2023/12/29 10:16:49;;;;;;;1999.90;999.90;;;9.60;99.90;;;;;;5064373;28;20070;-84
2023/12/29 10:19:39;;;;;;;1999.90;999.90;;;9.70;99.90;;;;;;5065523;28;20116;-85
2023/12/29 10:22:15;;;;;;;1999.90;999.90;;;9.00;99.90;;;;;;5065404;28;20041;-84
2023/12/29 10:24:45;;;;;;;1999.90;999.90;;;9.10;99.90;;;;;;5067181;28;20044;-84
2023/12/29 10:27:11;;;;;;;1999.90;999.90;;;9.10;99.90;;;;;;5076952;28;20053;-84
2023/12/29 10:29:37;;;;;;;1999.90;999.90;;;9.80;99.90;;;;;;5067568;28;20114;-84
2023/12/29 10:32:03;;;;;;;1999.90;999.90;;;9.20;99.90;;;;;;5068324;28;20044;-84
2023/12/29 10:34:29;;;;;;;1999.90;999.90;;;9.20;99.90;;;;;;5066740;28;20029;-86
2023/12/29 10:37:03;;;;;;;1999.90;999.90;;;9.20;99.90;;;;;;5065349;28;20055;-84
2023/12/29 10:39:29;;;;;;;;;;;9.40;99.90;;;;;;5067079;28;20043;-84
2023/12/29 10:42:06;;;;;;;1999.90;999.90;;;10.00;99.90;;;;;;5084272;28;20015;-84
2023/12/29 10:44:33;;;;;;;1999.90;999.90;;;9.20;99.90;;;;;;5066262;28;20059;-84
2023/12/29 10:46:58;;;;;;;1999.90;999.90;;;9.80;99.90;;;;;;5067212;28;20036;-84
2023/12/29 10:49:24;;;;;;;1999.90;999.90;;;10.00;99.90;;;;;;5083226;28;20043;-85
2023/12/29 10:51:50;;;;;;;1999.90;999.90;;;9.60;99.90;;;;;;5068108;28;20041;-84
2023/12/29 10:54:23;;;;;;;1999.90;999.90;;;9.70;99.90;;;;;;5067363;28;20029;-84
2023/12/29 10:57:02;;;;;;;1999.90;999.90;;;10.30;99.90;;;;;;5066820;28;20051;-84
2023/12/29 10:59:28;;;;;;;1999.90;999.90;;;9.50;99.90;;;;;;5066586;28;20028;-84
2023/12/29 11:01:53;;;;;;;1999.90;999.90;;;9.60;99.90;;;;;;5066118;28;20520;-84
2023/12/29 11:04:22;;;;;;;1999.90;999.90;;;9.40;99.90;;;;;;5067408;28;20036;-84
2023/12/29 11:06:50;;;;;;;1999.90;999.90;;;9.10;99.90;;;;;;5077517;28;20045;-83
2023/12/29 11:09:33;;;;;;;1999.90;999.90;;;9.30;99.90;;;;;;5067907;28;20086;-83
2023/12/29 11:12:01;;;;;;;1999.90;999.90;;;8.90;99.90;;;;;;5067556;28;20040;-84
2023/12/29 11:14:30;;;;;;;1999.90;999.90;;;8.80;99.90;;;;;;5066746;28;20041;-83
2023/12/29 11:17:00;;;;;;;1999.90;999.90;;;8.80;99.90;;;;;;5065460;28;20125;-83
2023/12/29 11:19:26;;;;;;;1999.90;999.90;;;8.70;99.90;;;;;;5065648;28;20520;-83
2023/12/29 11:21:55;;;;;;;1999.90;999.90;;;8.80;99.90;;;;;;5065288;28;20047;-83
2023/12/29 11:24:21;;;;;;;1999.90;999.90;;;8.90;99.90;;;;;;5066377;28;20047;-84
2023/12/29 11:26:49;;;;;;;1999.90;999.90;;;9.20;99.90;;;;;;5066483;28;20076;-84
2023/12/29 11:29:16;;;;;;;1999.90;999.90;;;8.90;99.90;;;;;;5067290;28;20382;-84
2023/12/29 11:31:43;;;;;;;1999.90;999.90;;;8.90;99.90;;;;;;5068063;28;20132;-84
2023/12/29 11:34:28;;;;;;;1999.90;999.90;;;9.00;99.90;;;;;;5067822;28;20047;-83
2023/12/29 11:37:05;;;;;;;1999.90;999.90;;;9.50;99.90;;;;;;5074393;28;20041;-84
2023/12/29 11:39:45;;;;;;;1999.90;999.90;;;9.00;99.90;;;;;;5057360;28;20028;-84
2023/12/29 11:42:35;;;;;;;1999.90;999.90;;;9.50;99.90;;;;;;5055229;28;20037;-84
2023/12/29 11:45:34;;;;;;;1999.90;999.90;;;9.00;99.90;;;;;;5072185;28;20037;-84
2023/12/29 11:48:02;;;;;;;1999.90;999.90;;;9.00;99.90;;;;;;5073404;28;20081;-84
2023/12/29 11:50:32;;;;;;;1999.90;999.90;;;9.60;99.90;;;;;;5071578;28;20048;-84
2023/12/29 11:52:59;;;;;;;1999.90;999.90;;;9.20;99.90;;;;;;5056027;28;20124;-84
2023/12/29 11:55:38;;;;;;;1999.90;999.90;;;8.90;99.90;;;;;;5058788;28;20033;-84
2023/12/29 11:58:04;;;;;;;1999.90;999.90;;;8.80;99.90;;;;;;5056262;28;20098;-84
2023/12/29 12:00:47;;;;;;;1999.90;999.90;;;8.90;99.90;;;;;;5059260;28;20135;-84
2023/12/29 12:03:27;;;;;;;1999.90;999.90;;;8.90;99.90;;;;;;5075663;28;20539;-84
2023/12/29 12:05:56;;;;;;;1999.90;999.90;;;9.60;99.90;;;;;;5058654;28;20040;-84
2023/12/29 12:08:34;;;;;;;1999.90;999.90;;;9.30;99.90;;;;;;5059102;28;20040;-84